CheckWX is a tool to help pilots better visualize weather data.  It is not intended as a substitute for an official pre-flight weather briefing.

14:06:20 UTC

PAWN METAR
Noatak Airport
Noatak, Alaska, USA
Current

10 mins ago

PAWN 201356Z AUTO 01009KT 10SM SCT100 08/01 A3003 RMK AO2 SLP180 T00780011
Observed
Aug-20 @ 13:56 UTC
Wind
  • 010° at 9 KTS
Visibility
10 SM
Flight Rules
VFR
Cloud Levels
  • Scattered at 10,000' AGL
Temperature
C / 46°F
Dewpoint
C / 34°F
Humidity
62%
Altimeter
30.03" Hg
Pressure
1016.92 hPa
Previous

1 hour ago

PAWN 201256Z AUTO 32005KT 10SM SCT110 06/02 A3004 RMK AO2 SLP184 T00610017
Observed
Aug-20 @ 12:56 UTC
Wind
  • 320° at 5 KTS
Visibility
10 SM
Flight Rules
VFR
Cloud Levels
  • Scattered at 11,000' AGL
Temperature
C / 43°F
Dewpoint
C / 36°F
Humidity
76%
Altimeter
30.04" Hg
Pressure
1017.32 hPa
Previous

3 hours ago

PAWN 201056Z AUTO 35008KT 10SM CLR 07/02 A3005 RMK AO2 SLP186 T00670017
Observed
Aug-20 @ 10:56 UTC
Wind
  • 350° at 8 KTS
Visibility
10 SM
Flight Rules
VFR
Cloud Levels
  • Clear skies
Temperature
C / 45°F
Dewpoint
C / 36°F
Humidity
71%
Altimeter
30.05" Hg
Pressure
1017.62 hPa